createdAt,value
2018-06-25T00:00:41.109Z,97385.81
2018-06-25T00:05:35.504Z,97386.65
2018-06-25T00:10:30.385Z,97387.32
2018-06-25T00:15:25.022Z,97389.03
2018-06-25T00:20:19.758Z,97392.08
2018-06-25T00:25:14.418Z,97383.38
2018-06-25T00:30:09.159Z,97379.40
2018-06-25T00:35:03.872Z,97383.02
2018-06-25T00:39:58.562Z,97383.77
2018-06-25T00:44:53.212Z,97377.77
2018-06-25T00:49:47.891Z,97379.86
2018-06-25T00:54:42.532Z,97382.72
2018-06-25T00:59:49.134Z,97390.40
2018-06-25T01:04:43.765Z,97401.02
2018-06-25T01:09:38.370Z,97391.08
2018-06-25T01:14:33.011Z,97396.92
2018-06-25T01:19:27.720Z,97399.19
2018-06-25T01:24:22.335Z,97391.59
2018-06-25T01:29:17.003Z,97396.70
2018-06-25T01:34:12.561Z,97395.72
2018-06-25T01:39:09.979Z,97392.26
2018-06-25T01:44:05.014Z,97391.92
2018-06-25T01:48:59.712Z,97390.35
2018-06-25T01:53:54.010Z,97393.11
2018-06-25T01:58:48.640Z,97390.53
2018-06-25T02:03:43.330Z,97376.77
2018-06-25T02:08:37.975Z,97374.88
2018-06-25T02:13:32.662Z,97372.79
2018-06-25T02:18:27.293Z,97376.77
2018-06-25T02:23:21.983Z,97371.22
2018-06-25T02:28:17.494Z,97378.53
2018-06-25T02:33:12.169Z,97389.08
2018-06-25T02:38:07.044Z,97382.28
2018-06-25T02:43:01.692Z,97381.02
2018-06-25T02:47:56.327Z,97379.02
2018-06-25T02:52:50.959Z,97376.64
2018-06-25T02:57:45.644Z,97371.74
2018-06-25T03:02:40.379Z,97374.39
2018-06-25T03:07:34.963Z,97378.00
2018-06-25T03:12:29.790Z,97377.28
2018-06-25T03:17:24.423Z,97382.56
2018-06-25T03:22:19.109Z,97389.85
2018-06-25T03:27:13.778Z,97391.03
2018-06-25T03:32:08.524Z,97399.97
2018-06-25T03:37:03.704Z,97401.50
2018-06-25T03:41:58.461Z,97391.61
2018-06-25T03:46:53.218Z,97391.86
2018-06-25T03:51:49.134Z,97401.63
2018-06-25T03:56:43.761Z,97407.14
2018-06-25T04:01:38.483Z,97412.53
2018-06-25T04:06:34.042Z,97412.80
2018-06-25T04:11:28.711Z,97423.31
2018-06-25T04:16:23.382Z,97419.31
2018-06-25T04:21:18.083Z,97421.56
2018-06-25T04:26:12.742Z,97422.73
2018-06-25T04:31:07.653Z,97428.53
2018-06-25T04:36:02.280Z,97439.72
2018-06-25T04:40:57.940Z,97445.06
2018-06-25T04:45:52.594Z,97447.95
2018-06-25T04:50:47.218Z,97453.78
2018-06-25T04:55:41.911Z,97456.36
2018-06-25T05:00:36.534Z,97462.06
2018-06-25T05:05:31.245Z,97463.54
2018-06-25T05:10:25.870Z,97473.48
2018-06-25T05:15:20.599Z,97472.13
2018-06-25T05:20:15.310Z,97461.14
2018-06-25T05:25:09.935Z,97460.91
2018-06-25T05:30:04.731Z,97468.69
2018-06-25T05:34:59.399Z,97478.56
2018-06-25T05:39:54.198Z,97482.68
2018-06-25T05:44:49.165Z,97493.51
2018-06-25T05:49:43.814Z,97494.98
2018-06-25T05:54:38.534Z,97507.66
2018-06-25T05:59:33.314Z,97511.80
2018-06-25T06:04:28.082Z,97515.43
2018-06-25T06:09:22.723Z,97527.73
2018-06-25T06:14:17.428Z,97532.80
2018-06-25T06:19:12.136Z,97529.25
2018-06-25T06:24:06.822Z,97540.28
2018-06-25T06:29:01.455Z,97549.47
2018-06-25T06:33:56.130Z,97547.98
2018-06-25T06:38:50.758Z,97546.88
2018-06-25T06:43:45.407Z,97551.42
2018-06-25T06:48:40.056Z,97552.59
2018-06-25T06:53:34.763Z,97554.95
2018-06-25T06:58:29.480Z,97553.28
2018-06-25T07:03:24.131Z,97552.23
2018-06-25T07:08:18.826Z,97555.18
2018-06-25T07:13:13.532Z,97562.75
2018-06-25T07:18:08.490Z,97563.38
2018-06-25T07:23:03.600Z,97563.48
2018-06-25T07:27:58.219Z,97558.63
2018-06-25T07:32:53.286Z,97561.17
2018-06-25T07:37:48.024Z,97561.23
2018-06-25T07:42:42.681Z,97564.05
2018-06-25T07:47:37.348Z,97556.34
2018-06-25T07:52:31.996Z,97557.27
2018-06-25T07:57:26.747Z,97555.29
2018-06-25T08:02:21.500Z,97547.72
2018-06-25T08:07:16.414Z,97549.52
2018-06-25T08:12:11.134Z,97545.36
2018-06-25T08:17:05.872Z,97544.55
2018-06-25T08:22:00.531Z,97541.95
2018-06-25T08:26:55.294Z,97553.67
2018-06-25T08:31:49.975Z,97558.77
2018-06-25T08:36:44.602Z,97559.14
2018-06-25T08:41:39.720Z,97561.63
2018-06-25T08:46:34.395Z,97564.27
2018-06-25T08:51:29.178Z,97561.69
2018-06-25T08:56:23.842Z,97570.13
2018-06-25T09:01:19.020Z,97572.70
2018-06-25T09:06:13.625Z,97573.22
2018-06-25T09:11:08.264Z,97579.05
2018-06-25T09:16:03.514Z,97580.27
2018-06-25T09:20:58.082Z,97581.94
2018-06-25T09:25:52.762Z,97577.23
2018-06-25T09:30:47.450Z,97577.80
2018-06-25T09:35:42.370Z,97580.80
2018-06-25T09:40:36.950Z,97580.80
2018-06-25T09:45:31.564Z,97588.41
2018-06-25T09:50:26.118Z,97584.53
2018-06-25T09:55:20.776Z,97590.61
2018-06-25T10:00:19.774Z,97592.27
2018-06-25T10:05:14.085Z,97593.69
2018-06-25T10:10:08.419Z,97593.86
2018-06-25T10:15:03.245Z,97592.59
2018-06-25T10:19:57.894Z,97597.75
2018-06-25T10:24:52.647Z,97587.14
2018-06-25T10:29:47.323Z,97584.92
2018-06-25T10:34:42.052Z,97580.10
2018-06-25T10:39:36.342Z,97574.31
2018-06-25T10:44:30.641Z,97577.97
2018-06-25T10:49:25.011Z,97580.00
2018-06-25T10:54:19.726Z,97584.16
2018-06-25T10:59:14.664Z,97580.02
2018-06-25T11:04:09.550Z,97579.67
2018-06-25T11:09:05.254Z,97578.75
2018-06-25T11:13:59.991Z,97577.06
2018-06-25T11:18:54.639Z,97577.91
2018-06-25T11:23:49.271Z,97576.83
2018-06-25T11:28:44.228Z,97573.72
2018-06-25T11:33:39.018Z,97575.57
2018-06-25T11:38:33.743Z,97574.22
2018-06-25T11:43:28.487Z,97567.34
2018-06-25T11:48:23.329Z,97571.09
2018-06-25T11:53:18.095Z,97566.75
2018-06-25T11:58:12.788Z,97562.51
2018-06-25T12:03:07.813Z,97548.09
2018-06-25T12:08:02.586Z,97542.72
2018-06-25T12:12:57.421Z,97542.34
2018-06-25T12:17:52.062Z,97541.72
2018-06-25T12:22:46.706Z,97544.75
2018-06-25T12:27:41.522Z,97545.50
2018-06-25T12:32:36.077Z,97550.73
2018-06-25T12:37:30.742Z,97552.73
2018-06-25T12:42:25.575Z,97556.68
2018-06-25T12:47:20.236Z,97558.22
2018-06-25T12:52:14.898Z,97549.20
2018-06-25T12:57:09.555Z,97555.98
2018-06-25T13:02:04.353Z,97545.77
2018-06-25T13:06:59.373Z,97547.06
2018-06-25T13:11:54.047Z,97543.36
2018-06-25T13:16:48.626Z,97554.58
2018-06-25T13:21:43.339Z,97555.43
2018-06-25T13:26:37.940Z,97557.06
2018-06-25T13:31:32.629Z,97546.32
2018-06-25T13:36:27.378Z,97544.11
2018-06-25T13:41:22.075Z,97544.63
2018-06-25T13:46:17.524Z,97537.10
2018-06-25T13:51:12.250Z,97538.46
2018-06-25T13:56:07.067Z,97535.41
2018-06-25T14:01:01.764Z,97535.44
2018-06-25T14:05:56.636Z,97532.27
2018-06-25T14:10:52.110Z,97541.09
2018-06-25T14:15:46.750Z,97539.09
2018-06-25T14:20:41.466Z,97526.97
2018-06-25T14:25:41.274Z,97541.35
2018-06-25T14:30:40.694Z,97532.91
2018-06-25T14:35:35.262Z,97524.87
2018-06-25T14:40:29.913Z,97521.97
2018-06-25T14:45:24.529Z,97526.84
2018-06-25T14:50:19.190Z,97520.56
2018-06-25T14:55:13.767Z,97520.70
2018-06-25T15:00:08.456Z,97519.00
2018-06-25T15:05:03.102Z,97519.61
2018-06-25T15:09:57.766Z,97519.08
2018-06-25T15:14:52.410Z,97511.65
2018-06-25T15:19:47.015Z,97506.87
2018-06-25T15:24:41.647Z,97509.66
2018-06-25T15:29:36.227Z,97503.01
2018-06-25T15:34:30.835Z,97497.08
2018-06-25T15:39:25.503Z,97492.26
2018-06-25T15:44:20.378Z,97496.16
2018-06-25T15:49:15.014Z,97491.30
2018-06-25T15:54:09.624Z,97493.02
2018-06-25T15:59:04.326Z,97500.33
2018-06-25T16:03:58.978Z,97495.27
2018-06-25T16:08:53.621Z,97498.40
2018-06-25T16:13:48.201Z,97493.81
2018-06-25T16:18:42.805Z,97486.44
2018-06-25T16:23:37.420Z,97481.48
2018-06-25T16:28:32.180Z,97480.26
2018-06-25T16:33:26.847Z,97482.95
2018-06-25T16:38:21.669Z,97482.02
2018-06-25T16:43:16.311Z,97485.59
2018-06-25T16:48:10.915Z,97489.87
2018-06-25T16:53:05.701Z,97488.75
2018-06-25T16:58:00.283Z,97484.92
2018-06-25T17:02:54.873Z,97494.44
2018-06-25T17:07:49.534Z,97490.89
2018-06-25T17:12:44.184Z,97491.38
2018-06-25T17:17:38.783Z,97491.12
2018-06-25T17:22:33.388Z,97488.68
2018-06-25T17:27:28.018Z,97494.37
2018-06-25T17:32:22.649Z,97493.33
2018-06-25T17:37:17.777Z,97493.22
2018-06-25T17:42:12.407Z,97500.59
2018-06-25T17:47:07.161Z,97494.81
2018-06-25T17:52:01.765Z,97494.83
2018-06-25T17:56:56.382Z,97503.09
2018-06-25T18:01:52.790Z,97510.17
2018-06-25T18:06:47.431Z,97508.50
2018-06-25T18:11:42.077Z,97513.03
2018-06-25T18:16:36.634Z,97514.80
2018-06-25T18:21:31.374Z,97517.97
2018-06-25T18:26:26.070Z,97520.77
2018-06-25T18:31:20.803Z,97526.16
2018-06-25T18:36:15.438Z,97527.75
2018-06-25T18:41:10.112Z,97527.45
2018-06-25T18:46:04.847Z,97534.44
2018-06-25T18:50:59.479Z,97534.27
2018-06-25T18:55:54.097Z,97527.45
2018-06-25T19:00:48.833Z,97532.93
2018-06-25T19:05:43.467Z,97534.41
2018-06-25T19:10:38.237Z,97535.05
2018-06-25T19:15:34.774Z,97543.38
2018-06-25T19:20:30.311Z,97545.58
2018-06-25T19:25:24.977Z,97553.33
2018-06-25T19:30:19.704Z,97558.58
2018-06-25T19:35:14.503Z,97569.55
2018-06-25T19:40:09.207Z,97574.20
2018-06-25T19:45:03.899Z,97575.45
2018-06-25T19:49:58.655Z,97581.44
2018-06-25T19:54:53.298Z,97588.12
2018-06-25T19:59:47.980Z,97597.23
2018-06-25T20:04:42.714Z,97603.52
2018-06-25T20:09:37.390Z,97607.73
2018-06-25T20:14:32.073Z,97603.50
2018-06-25T20:19:26.720Z,97610.98
2018-06-25T20:24:21.329Z,97609.19
2018-06-25T20:29:16.139Z,97616.75
2018-06-25T20:34:10.763Z,97615.88
2018-06-25T20:39:08.655Z,97619.98
2018-06-25T20:44:03.570Z,97617.16
2018-06-25T20:48:58.234Z,97627.56
2018-06-25T20:53:52.934Z,97629.98
2018-06-25T20:58:47.598Z,97634.12
2018-06-25T21:03:42.490Z,97637.52
2018-06-25T21:08:37.243Z,97641.88
2018-06-25T21:13:31.904Z,97642.25
2018-06-25T21:18:26.667Z,97642.00
2018-06-25T21:23:21.322Z,97644.84
2018-06-25T21:28:16.005Z,97652.90
2018-06-25T21:33:10.764Z,97650.42
2018-06-25T21:38:05.451Z,97645.08
2018-06-25T21:43:00.175Z,97640.96
2018-06-25T21:47:54.889Z,97655.19
2018-06-25T21:52:49.561Z,97657.61
2018-06-25T21:57:44.267Z,97658.06
2018-06-25T22:02:39.054Z,97658.28
2018-06-25T22:07:33.716Z,97658.77
2018-06-25T22:12:28.403Z,97662.42
2018-06-25T22:17:23.108Z,97657.52
2018-06-25T22:22:17.821Z,97662.66
2018-06-25T22:27:12.447Z,97662.53
2018-06-25T22:32:07.974Z,97668.86
2018-06-25T22:37:02.558Z,97665.45
2018-06-25T22:41:57.154Z,97666.91
2018-06-25T22:46:51.815Z,97663.77
2018-06-25T22:51:46.864Z,97666.63
2018-06-25T22:56:41.535Z,97670.77
2018-06-25T23:01:36.205Z,97678.05
2018-06-25T23:06:30.906Z,97673.85
2018-06-25T23:11:25.591Z,97676.30
2018-06-25T23:16:20.211Z,97679.64
2018-06-25T23:21:15.094Z,97682.49
2018-06-25T23:26:09.674Z,97685.43
2018-06-25T23:31:04.614Z,97683.95
2018-06-25T23:35:59.238Z,97690.61
2018-06-25T23:40:54.010Z,97684.93
2018-06-25T23:45:48.695Z,97687.44
2018-06-25T23:50:43.354Z,97678.02
2018-06-25T23:55:38.027Z,97676.11
